Dongsheng, China
Current Conditions -  °F | °C
As of 7:00 AM on Sunday 23 Nov 2014 (Local Time) from ZBHH Reporting Station
Haze Haze  
Wind Chill: 19°   Ceiling: Unl
Heat Index: 25°   Visibility: 1.2mi
Dew Point: 25°   Wind: 4mph
Humidity: 100%   Direction: 40°NE
Pressure: 30.18"   Gusts: NA
Location:  39.81°N, 109.99°E
Report Text: ZBHH 222300Z 04002MPS 2000 BR FEW040 M04/M04 Q1022 NOSIG
Loading
Personal Weather Stations






























Interactive Weather Map New forecast layout! Learn more

10-Day Weather Forecast

Advertisements
Track Severe Weather on mobile